sensor_id;sensor_type;location;lat;lon;timestamp;pressure;altitude;pressure_sealevel;temperature;humidity
79285;BME280;68734;50.452;11.636;2024-02-04T00:02:08;96045.41;;;5.44;100.00
79285;BME280;68734;50.452;11.636;2024-02-04T00:04:40;96047.84;;;5.45;100.00
79285;BME280;68734;50.452;11.636;2024-02-04T00:07:06;96040.06;;;5.44;99.90
79285;BME280;68734;50.452;11.636;2024-02-04T00:09:33;96041.25;;;5.48;100.00
79285;BME280;68734;50.452;11.636;2024-02-04T00:11:59;96037.97;;;5.46;99.94
79285;BME280;68734;50.452;11.636;2024-02-04T00:14:28;96041.69;;;5.45;100.00
79285;BME280;68734;50.452;11.636;2024-02-04T00:16:54;96028.94;;;5.40;100.00
79285;BME280;68734;50.452;11.636;2024-02-04T00:19:19;96018.63;;;5.37;100.00
79285;BME280;68734;50.452;11.636;2024-02-04T00:21:45;96027.53;;;5.37;100.00
79285;BME280;68734;50.452;11.636;2024-02-04T00:24:10;96016.56;;;5.39;100.00
79285;BME280;68734;50.452;11.636;2024-02-04T00:26:36;96000.88;;;5.43;100.00
79285;BME280;68734;50.452;11.636;2024-02-04T00:29:01;96016.97;;;5.43;100.00
79285;BME280;68734;50.452;11.636;2024-02-04T00:31:26;96023.53;;;5.47;99.90
79285;BME280;68734;50.452;11.636;2024-02-04T00:33:52;96030.09;;;5.51;99.56
79285;BME280;68734;50.452;11.636;2024-02-04T00:36:17;96036.22;;;5.58;99.08
79285;BME280;68734;50.452;11.636;2024-02-04T00:38:44;96047.97;;;5.57;99.26
79285;BME280;68734;50.452;11.636;2024-02-04T00:41:09;96048.59;;;5.59;99.66
79285;BME280;68734;50.452;11.636;2024-02-04T00:43:35;96035.19;;;5.59;99.42
79285;BME280;68734;50.452;11.636;2024-02-04T00:46:00;96034.16;;;5.60;99.39
79285;BME280;68734;50.452;11.636;2024-02-04T00:48:28;96043.66;;;5.56;99.37
79285;BME280;68734;50.452;11.636;2024-02-04T00:50:54;96045.28;;;5.57;99.57
79285;BME280;68734;50.452;11.636;2024-02-04T00:53:19;96046.63;;;5.48;99.68
79285;BME280;68734;50.452;11.636;2024-02-04T00:55:45;96040.38;;;5.54;99.63
79285;BME280;68734;50.452;11.636;2024-02-04T00:58:10;96039.06;;;5.63;99.07
79285;BME280;68734;50.452;11.636;2024-02-04T01:00:36;96031.28;;;5.62;98.73
79285;BME280;68734;50.452;11.636;2024-02-04T01:03:01;96022.38;;;5.61;98.86
79285;BME280;68734;50.452;11.636;2024-02-04T01:05:27;96027.59;;;5.56;98.90
79285;BME280;68734;50.452;11.636;2024-02-04T01:07:52;96034.22;;;5.53;99.11
79285;BME280;68734;50.452;11.636;2024-02-04T01:10:17;96033.22;;;5.48;99.30
79285;BME280;68734;50.452;11.636;2024-02-04T01:12:43;96037.97;;;5.46;99.60
79285;BME280;68734;50.452;11.636;2024-02-04T01:15:09;96024.38;;;5.40;100.00
79285;BME280;68734;50.452;11.636;2024-02-04T01:17:34;96036.75;;;5.42;100.00
79285;BME280;68734;50.452;11.636;2024-02-04T01:20:02;96027.69;;;5.43;100.00
79285;BME280;68734;50.452;11.636;2024-02-04T01:22:30;96028.94;;;5.40;100.00
79285;BME280;68734;50.452;11.636;2024-02-04T01:24:56;96032.88;;;5.37;100.00
79285;BME280;68734;50.452;11.636;2024-02-04T01:27:21;96003.44;;;5.31;100.00
79285;BME280;68734;50.452;11.636;2024-02-04T01:29:47;96001.97;;;5.35;100.00
79285;BME280;68734;50.452;11.636;2024-02-04T01:32:12;95996.00;;;5.33;100.00
79285;BME280;68734;50.452;11.636;2024-02-04T01:34:38;95982.66;;;5.26;100.00
79285;BME280;68734;50.452;11.636;2024-02-04T01:37:03;95994.78;;;5.35;100.00
79285;BME280;68734;50.452;11.636;2024-02-04T01:39:29;95994.78;;;5.35;99.67
79285;BME280;68734;50.452;11.636;2024-02-04T01:41:54;96007.97;;;5.30;99.73
79285;BME280;68734;50.452;11.636;2024-02-04T01:44:20;96005.16;;;5.25;99.95
79285;BME280;68734;50.452;11.636;2024-02-04T01:46:47;96005.97;;;5.19;100.00
79285;BME280;68734;50.452;11.636;2024-02-04T01:49:13;96008.06;;;5.17;99.96
79285;BME280;68734;50.452;11.636;2024-02-04T01:51:39;96013.84;;;5.14;100.00
79285;BME280;68734;50.452;11.636;2024-02-04T01:54:05;95999.84;;;5.12;100.00
79285;BME280;68734;50.452;11.636;2024-02-04T01:56:31;96011.78;;;5.16;100.00
79285;BME280;68734;50.452;11.636;2024-02-04T01:58:58;96003.91;;;5.21;100.00
79285;BME280;68734;50.452;11.636;2024-02-04T02:01:24;96003.50;;;5.24;100.00
79285;BME280;68734;50.452;11.636;2024-02-04T02:03:51;96012.13;;;5.26;99.65
79285;BME280;68734;50.452;11.636;2024-02-04T02:06:17;96000.94;;;5.36;99.59
79285;BME280;68734;50.452;11.636;2024-02-04T02:08:42;96006.50;;;5.34;99.30
79285;BME280;68734;50.452;11.636;2024-02-04T02:11:40;96005.03;;;5.38;99.34
79285;BME280;68734;50.452;11.636;2024-02-04T02:14:11;95999.53;;;5.33;99.40
79285;BME280;68734;50.452;11.636;2024-02-04T02:16:38;96007.72;;;5.38;99.66
79285;BME280;68734;50.452;11.636;2024-02-04T02:20:16;96012.81;;;5.47;99.88
79285;BME280;68734;50.452;11.636;2024-02-04T02:22:29;96004.94;;;5.52;99.58
79285;BME280;68734;50.452;11.636;2024-02-04T02:24:58;96010.09;;;5.53;99.71
79285;BME280;68734;50.452;11.636;2024-02-04T02:27:32;95988.09;;;5.45;99.67
79285;BME280;68734;50.452;11.636;2024-02-04T02:29:58;95997.19;;;5.44;99.92
79285;BME280;68734;50.452;11.636;2024-02-04T02:32:23;96000.47;;;5.46;99.78
79285;BME280;68734;50.452;11.636;2024-02-04T02:34:49;95993.44;;;5.45;99.95
79285;BME280;68734;50.452;11.636;2024-02-04T02:37:29;95991.59;;;5.45;99.55
79285;BME280;68734;50.452;11.636;2024-02-04T02:43:15;95997.34;;;5.49;98.82
79285;BME280;68734;50.452;11.636;2024-02-04T02:45:42;95993.78;;;5.55;98.32
79285;BME280;68734;50.452;11.636;2024-02-04T02:48:08;95983.91;;;5.55;97.82
79285;BME280;68734;50.452;11.636;2024-02-04T02:50:35;95992.22;;;5.47;97.67
79285;BME280;68734;50.452;11.636;2024-02-04T02:53:03;95997.56;;;5.47;97.47
79285;BME280;68734;50.452;11.636;2024-02-04T02:55:28;96001.69;;;5.43;97.71
79285;BME280;68734;50.452;11.636;2024-02-04T02:57:54;96008.75;;;5.37;98.04
79285;BME280;68734;50.452;11.636;2024-02-04T03:00:22;96011.59;;;5.43;98.29
79285;BME280;68734;50.452;11.636;2024-02-04T03:02:48;95998.00;;;5.44;98.11
79285;BME280;68734;50.452;11.636;2024-02-04T03:05:17;96006.84;;;5.45;98.08
79285;BME280;68734;50.452;11.636;2024-02-04T03:07:42;95994.66;;;5.49;97.72
79285;BME280;68734;50.452;11.636;2024-02-04T03:10:09;95986.00;;;5.47;97.58
79285;BME280;68734;50.452;11.636;2024-02-04T03:12:34;95990.16;;;5.43;97.53
79285;BME280;68734;50.452;11.636;2024-02-04T03:15:00;95986.13;;;5.33;97.91
79285;BME280;68734;50.452;11.636;2024-02-04T03:17:25;95987.75;;;5.34;98.29
79285;BME280;68734;50.452;11.636;2024-02-04T03:19:51;95993.56;;;5.31;98.86
79285;BME280;68734;50.452;11.636;2024-02-04T03:22:22;95990.28;;;5.29;98.81
79285;BME280;68734;50.452;11.636;2024-02-04T03:24:48;96009.63;;;5.31;98.95
79285;BME280;68734;50.452;11.636;2024-02-04T03:27:14;95989.44;;;5.29;99.39
79285;BME280;68734;50.452;11.636;2024-02-04T03:29:40;96001.97;;;5.35;99.10
79285;BME280;68734;50.452;11.636;2024-02-04T03:32:05;95995.13;;;5.39;98.83
79285;BME280;68734;50.452;11.636;2024-02-04T03:34:31;95998.88;;;5.38;98.63
79285;BME280;68734;50.452;11.636;2024-02-04T03:36:56;95991.50;;;5.33;98.76
79285;BME280;68734;50.452;11.636;2024-02-04T03:39:22;95984.41;;;5.39;98.99
79285;BME280;68734;50.452;11.636;2024-02-04T03:41:47;95977.81;;;5.42;99.12
79285;BME280;68734;50.452;11.636;2024-02-04T03:44:12;95982.31;;;5.48;99.01
79285;BME280;68734;50.452;11.636;2024-02-04T03:46:38;95995.25;;;5.51;98.95
79285;BME280;68734;50.452;11.636;2024-02-04T03:49:06;95994.25;;;5.52;99.01
79285;BME280;68734;50.452;11.636;2024-02-04T03:51:35;95994.25;;;5.52;98.91
79285;BME280;68734;50.452;11.636;2024-02-04T03:54:01;95990.97;;;5.50;98.83
79285;BME280;68734;50.452;11.636;2024-02-04T03:56:26;95987.66;;;5.48;98.84
79285;BME280;68734;50.452;11.636;2024-02-04T03:58:54;95995.25;;;5.51;98.87
79285;BME280;68734;50.452;11.636;2024-02-04T04:01:20;95983.53;;;5.52;99.06
79285;BME280;68734;50.452;11.636;2024-02-04T04:03:45;95976.69;;;5.56;98.67
79285;BME280;68734;50.452;11.636;2024-02-04T04:06:10;95969.91;;;5.53;98.63
79285;BME280;68734;50.452;11.636;2024-02-04T04:08:36;95974.81;;;5.56;98.43
79285;BME280;68734;50.452;11.636;2024-02-04T04:11:02;95964.91;;;5.57;98.59
79285;BME280;68734;50.452;11.636;2024-02-04T04:13:27;95951.31;;;5.58;98.39
79285;BME280;68734;50.452;11.636;2024-02-04T04:15:53;95946.75;;;5.59;98.56
79285;BME280;68734;50.452;11.636;2024-02-04T04:18:19;95943.72;;;5.55;98.66
79285;BME280;68734;50.452;11.636;2024-02-04T04:20:44;95964.50;;;5.60;98.93
79285;BME280;68734;50.452;11.636;2024-02-04T04:23:10;95969.84;;;5.60;98.92
79285;BME280;68734;50.452;11.636;2024-02-04T04:25:35;95952.72;;;5.61;98.89
79285;BME280;68734;50.452;11.636;2024-02-04T04:28:00;95962.19;;;5.64;98.77
79285;BME280;68734;50.452;11.636;2024-02-04T04:30:26;95951.91;;;5.60;98.90
79285;BME280;68734;50.452;11.636;2024-02-04T04:32:51;95949.81;;;5.63;98.54
79285;BME280;68734;50.452;11.636;2024-02-04T04:35:17;95951.84;;;5.67;98.67
79285;BME280;68734;50.452;11.636;2024-02-04T04:37:42;95953.50;;;5.68;98.61
79285;BME280;68734;50.452;11.636;2024-02-04T04:40:08;95962.19;;;5.64;98.82
79285;BME280;68734;50.452;11.636;2024-02-04T04:42:34;95962.41;;;5.62;98.91
79285;BME280;68734;50.452;11.636;2024-02-04T04:44:59;95966.72;;;5.63;99.06
79285;BME280;68734;50.452;11.636;2024-02-04T04:47:25;95979.69;;;5.66;99.08
79285;BME280;68734;50.452;11.636;2024-02-04T04:49:50;95973.06;;;5.69;99.41
79285;BME280;68734;50.452;11.636;2024-02-04T04:52:16;95961.34;;;5.63;99.68
79285;BME280;68734;50.452;11.636;2024-02-04T04:54:42;95984.63;;;5.69;99.54
79285;BME280;68734;50.452;11.636;2024-02-04T04:57:07;95975.94;;;5.67;99.78
79285;BME280;68734;50.452;11.636;2024-02-04T04:59:33;95972.66;;;5.65;99.92
79285;BME280;68734;50.452;11.636;2024-02-04T05:01:58;95971.88;;;5.65;99.96
79285;BME280;68734;50.452;11.636;2024-02-04T05:04:24;95967.78;;;5.62;99.94
79285;BME280;68734;50.452;11.636;2024-02-04T05:06:51;95979.91;;;5.65;100.00
79285;BME280;68734;50.452;11.636;2024-02-04T05:09:16;95974.75;;;5.63;100.00
79285;BME280;68734;50.452;11.636;2024-02-04T05:11:42;95949.69;;;5.57;100.00
79285;BME280;68734;50.452;11.636;2024-02-04T05:14:08;95950.50;;;5.58;99.98
79285;BME280;68734;50.452;11.636;2024-02-04T05:16:35;95950.03;;;5.61;100.00
79285;BME280;68734;50.452;11.636;2024-02-04T05:19:03;95944.69;;;5.61;100.00
79285;BME280;68734;50.452;11.636;2024-02-04T05:21:37;95944.53;;;5.56;100.00
79285;BME280;68734;50.452;11.636;2024-02-04T05:24:02;95943.47;;;5.57;100.00
79285;BME280;68734;50.452;11.636;2024-02-04T05:26:28;95952.13;;;5.59;100.00
79285;BME280;68734;50.452;11.636;2024-02-04T05:28:54;95956.66;;;5.58;99.80
79285;BME280;68734;50.452;11.636;2024-02-04T05:31:19;95949.28;;;5.54;99.93
79285;BME280;68734;50.452;11.636;2024-02-04T05:33:44;95955.06;;;5.51;100.00
79285;BME280;68734;50.452;11.636;2024-02-04T05:36:10;95940.06;;;5.50;100.00
79285;BME280;68734;50.452;11.636;2024-02-04T05:38:37;95950.91;;;5.55;100.00
79285;BME280;68734;50.452;11.636;2024-02-04T05:41:03;95950.91;;;5.55;100.00
79285;BME280;68734;50.452;11.636;2024-02-04T05:43:28;95964.69;;;5.58;100.00
79285;BME280;68734;50.452;11.636;2024-02-04T05:46:00;95962.41;;;5.62;100.00
79285;BME280;68734;50.452;11.636;2024-02-04T05:48:25;95964.31;;;5.55;100.00
79285;BME280;68734;50.452;11.636;2024-02-04T05:50:51;95958.34;;;5.53;100.00
79285;BME280;68734;50.452;11.636;2024-02-04T05:53:18;95954.06;;;5.45;100.00
79285;BME280;68734;50.452;11.636;2024-02-04T05:55:44;95953.88;;;5.47;100.00
79285;BME280;68734;50.452;11.636;2024-02-04T05:58:09;95949.94;;;5.49;100.00
79285;BME280;68734;50.452;11.636;2024-02-04T06:00:35;95930.34;;;5.49;100.00
79285;BME280;68734;50.452;11.636;2024-02-04T06:03:03;95927.53;;;5.44;100.00
79285;BME280;68734;50.452;11.636;2024-02-04T06:05:29;95915.97;;;5.43;100.00
79285;BME280;68734;50.452;11.636;2024-02-04T06:07:54;95910.25;;;5.39;100.00
79285;BME280;68734;50.452;11.636;2024-02-04T06:10:22;95922.59;;;5.40;100.00
79285;BME280;68734;50.452;11.636;2024-02-04T06:12:47;95921.84;;;5.33;100.00
79285;BME280;68734;50.452;11.636;2024-02-04T06:15:14;95930.47;;;5.35;100.00
79285;BME280;68734;50.452;11.636;2024-02-04T06:17:40;95925.16;;;5.29;100.00
79285;BME280;68734;50.452;11.636;2024-02-04T06:20:05;95942.06;;;5.29;100.00
79285;BME280;68734;50.452;11.636;2024-02-04T06:22:32;95934.25;;;5.28;100.00
79285;BME280;68734;50.452;11.636;2024-02-04T06:25:00;95946.97;;;5.32;100.00
79285;BME280;68734;50.452;11.636;2024-02-04T06:27:25;95936.25;;;5.32;100.00
79285;BME280;68734;50.452;11.636;2024-02-04T06:29:52;95953.72;;;5.42;100.00
79285;BME280;68734;50.452;11.636;2024-02-04T06:32:17;95941.94;;;5.43;100.00
79285;BME280;68734;50.452;11.636;2024-02-04T06:34:46;95932.44;;;5.47;100.00
79285;BME280;68734;50.452;11.636;2024-02-04T06:37:11;95928.94;;;5.46;99.88
79285;BME280;68734;50.452;11.636;2024-02-04T06:39:39;95938.63;;;5.47;99.92
79285;BME280;68734;50.452;11.636;2024-02-04T06:42:07;95922.97;;;5.44;100.00
79285;BME280;68734;50.452;11.636;2024-02-04T06:44:35;95922.31;;;5.49;100.00
79285;BME280;68734;50.452;11.636;2024-02-04T06:47:00;95925.00;;;5.49;100.00
79285;BME280;68734;50.452;11.636;2024-02-04T06:49:26;95931.19;;;5.49;99.97
79285;BME280;68734;50.452;11.636;2024-02-04T06:51:52;95934.09;;;5.48;100.00
79285;BME280;68734;50.452;11.636;2024-02-04T06:54:25;95920.09;;;5.46;100.00
79285;BME280;68734;50.452;11.636;2024-02-04T06:56:51;95935.56;;;5.44;100.00
79285;BME280;68734;50.452;11.636;2024-02-04T06:59:17;95914.13;;;5.44;100.00
79285;BME280;68734;50.452;11.636;2024-02-04T07:01:43;95936.16;;;5.46;100.00
79285;BME280;68734;50.452;11.636;2024-02-04T07:04:08;95924.59;;;5.45;100.00
79285;BME280;68734;50.452;11.636;2024-02-04T07:06:34;95922.19;;;5.44;100.00
79285;BME280;68734;50.452;11.636;2024-02-04T07:08:59;95924.19;;;5.48;100.00
79285;BME280;68734;50.452;11.636;2024-02-04T07:11:24;95915.16;;;5.43;100.00
79285;BME280;68734;50.452;11.636;2024-02-04T07:13:50;95907.28;;;5.48;100.00
79285;BME280;68734;50.452;11.636;2024-02-04T07:16:23;95902.38;;;5.45;100.00
79285;BME280;68734;50.452;11.636;2024-02-04T07:18:49;95898.06;;;5.44;100.00
79285;BME280;68734;50.452;11.636;2024-02-04T07:21:14;95894.78;;;5.42;100.00
79285;BME280;68734;50.452;11.636;2024-02-04T07:23:39;95908.50;;;5.52;100.00
79285;BME280;68734;50.452;11.636;2024-02-04T07:26:05;95918.00;;;5.48;100.00
79285;BME280;68734;50.452;11.636;2024-02-04T07:28:34;95917.56;;;5.51;99.84
79285;BME280;68734;50.452;11.636;2024-02-04T07:30:59;95915.94;;;5.50;99.79
79285;BME280;68734;50.452;11.636;2024-02-04T07:33:25;95918.75;;;5.55;99.46
79285;BME280;68734;50.452;11.636;2024-02-04T07:35:50;95911.31;;;5.57;99.19
79285;BME280;68734;50.452;11.636;2024-02-04T07:38:16;95915.06;;;5.56;99.32
79285;BME280;68734;50.452;11.636;2024-02-04T07:40:41;95916.31;;;5.53;99.38
79285;BME280;68734;50.452;11.636;2024-02-04T07:43:07;95916.53;;;5.52;99.73
79285;BME280;68734;50.452;11.636;2024-02-04T07:45:34;95922.03;;;5.57;99.44
79285;BME280;68734;50.452;11.636;2024-02-04T07:48:03;95925.44;;;5.46;99.56
79285;BME280;68734;50.452;11.636;2024-02-04T07:50:28;95935.72;;;5.49;99.45
79285;BME280;68734;50.452;11.636;2024-02-04T07:52:54;95934.09;;;5.48;100.00
79285;BME280;68734;50.452;11.636;2024-02-04T07:55:19;95950.78;;;5.50;99.60
79285;BME280;68734;50.452;11.636;2024-02-04T07:57:47;95934.84;;;5.55;99.21
79285;BME280;68734;50.452;11.636;2024-02-04T08:00:13;95914.16;;;5.62;99.21
79285;BME280;68734;50.452;11.636;2024-02-04T08:02:39;95897.31;;;5.55;99.39
79285;BME280;68734;50.452;11.636;2024-02-04T08:05:05;95914.16;;;5.62;99.19
79285;BME280;68734;50.452;11.636;2024-02-04T08:07:37;95898.75;;;5.57;99.08
79285;BME280;68734;50.452;11.636;2024-02-04T08:10:03;95900.31;;;5.65;98.51
79285;BME280;68734;50.452;11.636;2024-02-04T08:12:29;95882.16;;;5.67;97.95
79285;BME280;68734;50.452;11.636;2024-02-04T08:14:54;95874.13;;;5.67;98.06
79285;BME280;68734;50.452;11.636;2024-02-04T08:17:22;95885.59;;;5.74;98.56
79285;BME280;68734;50.452;11.636;2024-02-04T08:19:48;95888.88;;;5.76;98.15
79285;BME280;68734;50.452;11.636;2024-02-04T08:22:13;95896.25;;;5.81;97.35
79285;BME280;68734;50.452;11.636;2024-02-04T08:24:39;95912.72;;;5.85;97.64
79285;BME280;68734;50.452;11.636;2024-02-04T08:27:04;95912.72;;;5.85;97.88
79285;BME280;68734;50.452;11.636;2024-02-04T08:29:33;95910.97;;;5.97;97.66
79285;BME280;68734;50.452;11.636;2024-02-04T08:31:58;95902.75;;;5.92;97.67
79285;BME280;68734;50.452;11.636;2024-02-04T08:34:24;95914.50;;;5.91;97.69
79285;BME280;68734;50.452;11.636;2024-02-04T08:36:51;95911.81;;;5.91;97.84
79285;BME280;68734;50.452;11.636;2024-02-04T08:39:21;95925.44;;;5.96;97.81
79285;BME280;68734;50.452;11.636;2024-02-04T08:41:47;95918.41;;;5.95;97.14
79285;BME280;68734;50.452;11.636;2024-02-04T08:44:13;95913.03;;;5.95;97.23
79285;BME280;68734;50.452;11.636;2024-02-04T08:46:38;95909.34;;;5.89;97.44
79285;BME280;68734;50.452;11.636;2024-02-04T08:49:04;95905.44;;;5.92;97.72
79285;BME280;68734;50.452;11.636;2024-02-04T08:51:32;95901.88;;;5.98;97.77
79285;BME280;68734;50.452;11.636;2024-02-04T08:53:58;95892.84;;;5.92;97.62
79285;BME280;68734;50.452;11.636;2024-02-04T08:56:23;95887.91;;;5.89;97.53
79285;BME280;68734;50.452;11.636;2024-02-04T08:58:49;95886.44;;;5.93;97.25
79285;BME280;68734;50.452;11.636;2024-02-04T09:01:14;95889.50;;;5.97;97.22
79285;BME280;68734;50.452;11.636;2024-02-04T09:03:39;95872.84;;;5.95;97.32
79285;BME280;68734;50.452;11.636;2024-02-04T09:06:07;95886.47;;;6.12;96.85
79285;BME280;68734;50.452;11.636;2024-02-04T09:08:32;95892.50;;;6.26;95.77
79285;BME280;68734;50.452;11.636;2024-02-04T09:10:58;95900.69;;;6.31;95.71
79285;BME280;68734;50.452;11.636;2024-02-04T09:13:23;95909.31;;;6.33;95.64
79285;BME280;68734;50.452;11.636;2024-02-04T09:15:52;95893.91;;;6.28;95.16
79285;BME280;68734;50.452;11.636;2024-02-04T09:18:19;95901.16;;;6.28;95.37
79285;BME280;68734;50.452;11.636;2024-02-04T09:20:47;95909.63;;;6.25;94.71
79285;BME280;68734;50.452;11.636;2024-02-04T09:23:15;95891.31;;;6.22;95.29
79285;BME280;68734;50.452;11.636;2024-02-04T09:25:43;95873.13;;;6.24;95.49
79285;BME280;68734;50.452;11.636;2024-02-04T09:28:08;95877.22;;;6.26;95.84
79285;BME280;68734;50.452;11.636;2024-02-04T09:30:34;95890.41;;;6.28;96.13
79285;BME280;68734;50.452;11.636;2024-02-04T09:32:59;95894.03;;;6.33;96.01
79285;BME280;68734;50.452;11.636;2024-02-04T09:35:25;95886.84;;;6.34;95.42
79285;BME280;68734;50.452;11.636;2024-02-04T09:37:50;95895.59;;;6.41;94.87
79285;BME280;68734;50.452;11.636;2024-02-04T09:40:16;95895.59;;;6.41;94.67
79285;BME280;68734;50.452;11.636;2024-02-04T09:42:42;95900.38;;;6.39;94.86
79285;BME280;68734;50.452;11.636;2024-02-04T09:45:08;95889.63;;;6.39;94.64
79285;BME280;68734;50.452;11.636;2024-02-04T09:47:35;95888.28;;;6.48;94.15
79285;BME280;68734;50.452;11.636;2024-02-04T09:50:01;95888.88;;;6.50;94.56
79285;BME280;68734;50.452;11.636;2024-02-04T09:52:29;95888.41;;;6.53;94.50
79285;BME280;68734;50.452;11.636;2024-02-04T09:55:02;95902.81;;;6.59;94.46
79285;BME280;68734;50.452;11.636;2024-02-04T09:57:29;95892.16;;;6.52;93.10
79285;BME280;68734;50.452;11.636;2024-02-04T09:59:58;95895.88;;;6.51;93.26
79285;BME280;68734;50.452;11.636;2024-02-04T10:02:24;95901.56;;;6.62;93.43
79285;BME280;68734;50.452;11.636;2024-02-04T10:04:49;95894.34;;;6.74;92.75
79285;BME280;68734;50.452;11.636;2024-02-04T10:07:15;95893.44;;;6.80;92.13
79285;BME280;68734;50.452;11.636;2024-02-04T10:09:45;95908.66;;;6.86;91.44
79285;BME280;68734;50.452;11.636;2024-02-04T10:12:11;95895.91;;;6.82;91.39
79285;BME280;68734;50.452;11.636;2024-02-04T10:14:44;95903.72;;;6.83;90.72
79285;BME280;68734;50.452;11.636;2024-02-04T10:17:10;95882.13;;;6.78;91.63
79285;BME280;68734;50.452;11.636;2024-02-04T10:19:35;95890.63;;;6.75;92.38
79285;BME280;68734;50.452;11.636;2024-02-04T10:22:02;95886.31;;;6.74;92.62
79285;BME280;68734;50.452;11.636;2024-02-04T10:24:28;95882.13;;;6.78;93.34
79285;BME280;68734;50.452;11.636;2024-02-04T10:26:57;95890.88;;;6.85;93.30
79285;BME280;68734;50.452;11.636;2024-02-04T10:29:26;95884.69;;;6.85;93.65
79285;BME280;68734;50.452;11.636;2024-02-04T10:31:55;95889.25;;;6.84;93.67
79285;BME280;68734;50.452;11.636;2024-02-04T10:34:23;95882.25;;;6.83;93.59
79285;BME280;68734;50.452;11.636;2024-02-04T10:36:51;95879.22;;;6.91;94.09
79285;BME280;68734;50.452;11.636;2024-02-04T10:39:16;95859.06;;;7.01;94.02
79285;BME280;68734;50.452;11.636;2024-02-04T10:41:50;95875.66;;;7.21;92.12
79285;BME280;68734;50.452;11.636;2024-02-04T10:44:17;95857.59;;;7.28;90.45
79285;BME280;68734;50.452;11.636;2024-02-04T10:46:47;95855.94;;;7.39;91.47
79285;BME280;68734;50.452;11.636;2024-02-04T10:49:18;95848.25;;;7.43;90.43
79285;BME280;68734;50.452;11.636;2024-02-04T10:51:45;95837.16;;;7.51;90.50
79285;BME280;68734;50.452;11.636;2024-02-04T10:54:15;95835.28;;;7.63;90.13
79285;BME280;68734;50.452;11.636;2024-02-04T10:56:43;95832.00;;;7.61;89.92
79285;BME280;68734;50.452;11.636;2024-02-04T10:59:12;95826.03;;;7.59;89.75
79285;BME280;68734;50.452;11.636;2024-02-04T11:01:43;95817.63;;;7.44;89.96
79285;BME280;68734;50.452;11.636;2024-02-04T11:04:14;95807.34;;;7.41;90.05
79285;BME280;68734;50.452;11.636;2024-02-04T11:06:41;95795.56;;;7.30;90.79
79285;BME280;68734;50.452;11.636;2024-02-04T11:09:08;95796.38;;;7.30;90.90
79285;BME280;68734;50.452;11.636;2024-02-04T11:11:36;95786.78;;;7.11;91.09
79285;BME280;68734;50.452;11.636;2024-02-04T11:14:04;95797.91;;;7.26;91.76
79285;BME280;68734;50.452;11.636;2024-02-04T11:24:54;95782.47;;;7.10;92.36
79285;BME280;68734;50.452;11.636;2024-02-04T11:27:25;95785.97;;;7.10;92.39
79285;BME280;68734;50.452;11.636;2024-02-04T11:29:53;95781.53;;;6.92;93.52
79285;BME280;68734;50.452;11.636;2024-02-04T11:32:19;95771.81;;;6.91;93.24
79285;BME280;68734;50.452;11.636;2024-02-04T11:34:45;95753.16;;;6.96;93.44
79285;BME280;68734;50.452;11.636;2024-02-04T11:37:17;95752.66;;;6.99;93.62
79285;BME280;68734;50.452;11.636;2024-02-04T11:39:57;95759.69;;;7.12;92.79
79285;BME280;68734;50.452;11.636;2024-02-04T11:42:23;95743.94;;;7.04;92.87
79285;BME280;68734;50.452;11.636;2024-02-04T11:44:49;95759.25;;;7.04;92.93
79285;BME280;68734;50.452;11.636;2024-02-04T11:47:25;95757.59;;;6.91;92.64
79285;BME280;68734;50.452;11.636;2024-02-04T11:49:55;95750.34;;;6.91;92.81
79285;BME280;68734;50.452;11.636;2024-02-04T11:52:20;95750.34;;;6.91;93.18
79285;BME280;68734;50.452;11.636;2024-02-04T11:54:46;95742.41;;;6.96;93.18
79285;BME280;68734;50.452;11.636;2024-02-04T11:57:14;95746.38;;;6.82;93.40
79285;BME280;68734;50.452;11.636;2024-02-04T11:59:40;95758.28;;;6.86;93.48
79285;BME280;68734;50.452;11.636;2024-02-04T12:02:07;95744.72;;;6.81;93.79
79285;BME280;68734;50.452;11.636;2024-02-04T12:04:33;95741.38;;;6.86;93.49
79285;BME280;68734;50.452;11.636;2024-02-04T12:06:59;95744.72;;;6.81;93.24
79285;BME280;68734;50.452;11.636;2024-02-04T12:09:26;95748.00;;;6.83;93.67
79285;BME280;68734;50.452;11.636;2024-02-04T12:11:53;95751.38;;;6.78;93.36
79285;BME280;68734;50.452;11.636;2024-02-04T12:14:19;95746.81;;;6.79;94.00
79285;BME280;68734;50.452;11.636;2024-02-04T12:16:45;95728.16;;;6.84;94.08
79285;BME280;68734;50.452;11.636;2024-02-04T12:19:11;95721.50;;;6.87;93.75
79285;BME280;68734;50.452;11.636;2024-02-04T12:21:39;95718.13;;;6.91;93.54
79285;BME280;68734;50.452;11.636;2024-02-04T12:24:05;95730.50;;;6.92;93.76
79285;BME280;68734;50.452;11.636;2024-02-04T12:26:31;95726.19;;;6.79;93.73
79285;BME280;68734;50.452;11.636;2024-02-04T12:28:56;95749.41;;;6.74;93.47
79285;BME280;68734;50.452;11.636;2024-02-04T12:31:25;95745.66;;;6.75;94.98
79285;BME280;68734;50.452;11.636;2024-02-04T12:33:55;95726.50;;;6.71;94.52
79285;BME280;68734;50.452;11.636;2024-02-04T12:36:29;95741.22;;;6.69;94.67
79285;BME280;68734;50.452;11.636;2024-02-04T12:38:59;95717.19;;;6.74;95.07
79285;BME280;68734;50.452;11.636;2024-02-04T12:41:35;95734.09;;;6.74;94.28
79285;BME280;68734;50.452;11.636;2024-02-04T12:44:03;95729.19;;;6.71;94.91
79285;BME280;68734;50.452;11.636;2024-02-04T12:46:30;95728.50;;;6.76;95.02
79285;BME280;68734;50.452;11.636;2024-02-04T12:48:57;95713.22;;;6.88;94.63
79285;BME280;68734;50.452;11.636;2024-02-04T12:51:33;95722.69;;;7.03;94.04
79285;BME280;68734;50.452;11.636;2024-02-04T12:54:16;95710.91;;;7.04;93.02
79285;BME280;68734;50.452;11.636;2024-02-04T12:59:32;95712.88;;;6.96;94.11
79285;BME280;68734;50.452;11.636;2024-02-04T13:02:05;95714.03;;;7.01;94.21
79285;BME280;68734;50.452;11.636;2024-02-04T13:04:37;95723.75;;;6.90;94.45
79285;BME280;68734;50.452;11.636;2024-02-04T13:07:07;95732.13;;;6.93;94.13
79285;BME280;68734;50.452;11.636;2024-02-04T13:09:35;95709.97;;;6.86;94.61
79285;BME280;68734;50.452;11.636;2024-02-04T13:12:07;95712.06;;;6.84;94.26